KEMP/EMP METAR and TAF weather

Enter ICAO airport designator
Station Type Date Time Source
KEMP METAR 2022/01/29 00:53 UTC NOAA

KEMP 290053Z AUTO 15005KT 10SM CLR M01/M10 A3036 RMK AO2 SLP297 T10111100


Station Type Date Time Source
KEMP Decoded METAR 2022/01/29 00:53 UTC NOAA

EMPORIA MUNICIPAL AIRPORT, KS, United States (KEMP) 38-20N 96-12W 367M
Jan 28, 2022 - 07:53 PM EST / 2022.01.29 0053 UTC
Wind: from the SSE (150 degrees) at 6 MPH (5 KT):0
Visibility: 10 mile(s):0
Sky conditions: clear
Temperature: 30.0 F (-1.1 C)
Windchill: 23 F (-5 C):1
Dew Point: 14.0 F (-10.0 C)
Relative Humidity: 50%
Pressure (altimeter): 30.36 in. Hg (1028 hPa)
ob: KEMP 290053Z AUTO 15005KT 10SM CLR M01/M10 A3036 RMK AO2 SLP297 T10111100
cycle: 1

Station Type Date Time Source
KEMP TAF UTC NOAA

Error!

Example: see airport list